sensor_id;sensor_type;location;lat;lon;timestamp;temperature;humidity
6724;DHT22;3399;52.530;13.304;2023-05-07T00:00:18;10.30;99.90
6724;DHT22;3399;52.530;13.304;2023-05-07T00:02:45;10.30;99.90
6724;DHT22;3399;52.530;13.304;2023-05-07T00:05:11;10.20;99.90
6724;DHT22;3399;52.530;13.304;2023-05-07T00:07:37;10.20;99.90
6724;DHT22;3399;52.530;13.304;2023-05-07T00:10:03;10.40;99.90
6724;DHT22;3399;52.530;13.304;2023-05-07T00:12:29;10.40;99.90
6724;DHT22;3399;52.530;13.304;2023-05-07T00:15:00;10.20;99.90
6724;DHT22;3399;52.530;13.304;2023-05-07T00:17:26;10.20;99.90
6724;DHT22;3399;52.530;13.304;2023-05-07T00:19:51;10.20;99.90
6724;DHT22;3399;52.530;13.304;2023-05-07T00:22:17;10.10;99.90
6724;DHT22;3399;52.530;13.304;2023-05-07T00:24:42;10.10;99.90
6724;DHT22;3399;52.530;13.304;2023-05-07T00:27:08;10.30;99.90
6724;DHT22;3399;52.530;13.304;2023-05-07T00:29:33;10.30;99.90
6724;DHT22;3399;52.530;13.304;2023-05-07T00:31:59;10.30;99.90
6724;DHT22;3399;52.530;13.304;2023-05-07T00:34:24;10.00;99.90
6724;DHT22;3399;52.530;13.304;2023-05-07T00:36:50;10.20;99.90
6724;DHT22;3399;52.530;13.304;2023-05-07T00:39:15;10.30;99.90
6724;DHT22;3399;52.530;13.304;2023-05-07T00:41:41;10.40;99.90
6724;DHT22;3399;52.530;13.304;2023-05-07T00:44:06;10.40;99.90
6724;DHT22;3399;52.530;13.304;2023-05-07T00:46:32;10.50;99.90
6724;DHT22;3399;52.530;13.304;2023-05-07T00:48:59;10.40;99.90
6724;DHT22;3399;52.530;13.304;2023-05-07T00:51:25;10.40;99.90
6724;DHT22;3399;52.530;13.304;2023-05-07T00:53:53;10.30;99.90
6724;DHT22;3399;52.530;13.304;2023-05-07T00:56:20;10.40;99.90
6724;DHT22;3399;52.530;13.304;2023-05-07T00:58:46;10.40;99.90
6724;DHT22;3399;52.530;13.304;2023-05-07T01:01:12;10.30;99.90
6724;DHT22;3399;52.530;13.304;2023-05-07T01:03:37;10.30;99.90
6724;DHT22;3399;52.530;13.304;2023-05-07T01:06:04;10.30;99.90
6724;DHT22;3399;52.530;13.304;2023-05-07T01:08:32;10.30;99.90
6724;DHT22;3399;52.530;13.304;2023-05-07T01:10:58;10.20;99.90
6724;DHT22;3399;52.530;13.304;2023-05-07T01:13:24;10.10;99.90
6724;DHT22;3399;52.530;13.304;2023-05-07T01:15:50;10.20;99.90
6724;DHT22;3399;52.530;13.304;2023-05-07T01:18:16;10.20;99.90
6724;DHT22;3399;52.530;13.304;2023-05-07T01:20:42;10.10;99.90
6724;DHT22;3399;52.530;13.304;2023-05-07T01:23:08;10.10;99.90
6724;DHT22;3399;52.530;13.304;2023-05-07T01:25:35;10.20;99.90
6724;DHT22;3399;52.530;13.304;2023-05-07T01:28:00;10.20;99.90
6724;DHT22;3399;52.530;13.304;2023-05-07T01:30:27;10.20;99.90
6724;DHT22;3399;52.530;13.304;2023-05-07T01:33:08;10.20;99.90
6724;DHT22;3399;52.530;13.304;2023-05-07T01:35:39;10.20;99.90
6724;DHT22;3399;52.530;13.304;2023-05-07T01:38:05;10.40;99.90
6724;DHT22;3399;52.530;13.304;2023-05-07T01:40:32;10.30;99.90
6724;DHT22;3399;52.530;13.304;2023-05-07T01:42:57;10.40;99.90
6724;DHT22;3399;52.530;13.304;2023-05-07T01:45:24;10.20;99.90
6724;DHT22;3399;52.530;13.304;2023-05-07T01:47:51;10.10;99.90
6724;DHT22;3399;52.530;13.304;2023-05-07T01:50:19;10.30;99.90
6724;DHT22;3399;52.530;13.304;2023-05-07T01:52:45;10.50;99.90
6724;DHT22;3399;52.530;13.304;2023-05-07T01:55:11;10.40;99.90
6724;DHT22;3399;52.530;13.304;2023-05-07T01:57:36;10.40;99.90
6724;DHT22;3399;52.530;13.304;2023-05-07T02:00:02;10.40;99.90
6724;DHT22;3399;52.530;13.304;2023-05-07T02:02:30;10.50;99.90
6724;DHT22;3399;52.530;13.304;2023-05-07T02:04:56;10.40;99.90
6724;DHT22;3399;52.530;13.304;2023-05-07T02:07:21;10.30;99.90
6724;DHT22;3399;52.530;13.304;2023-05-07T02:09:47;10.30;99.90
6724;DHT22;3399;52.530;13.304;2023-05-07T02:12:12;10.20;99.90
6724;DHT22;3399;52.530;13.304;2023-05-07T02:14:38;10.20;99.90
6724;DHT22;3399;52.530;13.304;2023-05-07T02:17:03;10.10;99.90
6724;DHT22;3399;52.530;13.304;2023-05-07T02:19:29;10.10;99.90
6724;DHT22;3399;52.530;13.304;2023-05-07T02:21:55;10.10;99.90
6724;DHT22;3399;52.530;13.304;2023-05-07T02:24:20;10.20;99.90
6724;DHT22;3399;52.530;13.304;2023-05-07T02:26:46;10.20;99.90
6724;DHT22;3399;52.530;13.304;2023-05-07T02:29:12;10.20;99.90
6724;DHT22;3399;52.530;13.304;2023-05-07T02:31:37;10.10;99.90
6724;DHT22;3399;52.530;13.304;2023-05-07T02:34:03;10.00;99.90
6724;DHT22;3399;52.530;13.304;2023-05-07T02:36:29;10.00;99.90
6724;DHT22;3399;52.530;13.304;2023-05-07T02:38:55;10.10;99.90
6724;DHT22;3399;52.530;13.304;2023-05-07T02:41:20;10.10;99.90
6724;DHT22;3399;52.530;13.304;2023-05-07T02:43:46;10.10;99.90
6724;DHT22;3399;52.530;13.304;2023-05-07T02:46:11;10.20;99.90
6724;DHT22;3399;52.530;13.304;2023-05-07T02:48:37;10.10;99.90
6724;DHT22;3399;52.530;13.304;2023-05-07T02:51:03;10.10;99.90
6724;DHT22;3399;52.530;13.304;2023-05-07T02:53:28;10.20;99.90
6724;DHT22;3399;52.530;13.304;2023-05-07T02:55:58;10.10;99.90
6724;DHT22;3399;52.530;13.304;2023-05-07T02:58:24;10.10;99.90
6724;DHT22;3399;52.530;13.304;2023-05-07T03:00:50;10.20;99.90
6724;DHT22;3399;52.530;13.304;2023-05-07T03:03:15;10.20;99.90
6724;DHT22;3399;52.530;13.304;2023-05-07T03:05:41;10.00;99.90
6724;DHT22;3399;52.530;13.304;2023-05-07T03:08:07;10.20;99.90
6724;DHT22;3399;52.530;13.304;2023-05-07T03:10:33;10.20;99.90
6724;DHT22;3399;52.530;13.304;2023-05-07T03:12:58;10.20;99.90
6724;DHT22;3399;52.530;13.304;2023-05-07T03:15:24;10.00;99.90
6724;DHT22;3399;52.530;13.304;2023-05-07T03:17:50;10.10;99.90
6724;DHT22;3399;52.530;13.304;2023-05-07T03:20:15;10.10;99.90
6724;DHT22;3399;52.530;13.304;2023-05-07T03:22:41;10.10;99.90
6724;DHT22;3399;52.530;13.304;2023-05-07T03:25:07;10.10;99.90
6724;DHT22;3399;52.530;13.304;2023-05-07T03:27:32;10.10;99.90
6724;DHT22;3399;52.530;13.304;2023-05-07T03:29:58;10.20;99.90
6724;DHT22;3399;52.530;13.304;2023-05-07T03:32:23;10.20;99.90
6724;DHT22;3399;52.530;13.304;2023-05-07T03:34:49;10.20;99.90
6724;DHT22;3399;52.530;13.304;2023-05-07T03:37:14;10.10;99.90
6724;DHT22;3399;52.530;13.304;2023-05-07T03:39:40;10.30;99.90
6724;DHT22;3399;52.530;13.304;2023-05-07T03:42:05;10.20;99.90
6724;DHT22;3399;52.530;13.304;2023-05-07T03:44:31;10.10;99.90
6724;DHT22;3399;52.530;13.304;2023-05-07T03:46:56;10.00;99.90
6724;DHT22;3399;52.530;13.304;2023-05-07T03:49:22;10.10;99.90
6724;DHT22;3399;52.530;13.304;2023-05-07T03:51:47;10.00;99.90
6724;DHT22;3399;52.530;13.304;2023-05-07T03:54:12;9.90;99.90
6724;DHT22;3399;52.530;13.304;2023-05-07T03:56:38;10.10;99.90
6724;DHT22;3399;52.530;13.304;2023-05-07T03:59:04;10.20;99.90
6724;DHT22;3399;52.530;13.304;2023-05-07T04:01:29;10.10;99.90
6724;DHT22;3399;52.530;13.304;2023-05-07T04:03:55;10.00;99.90
6724;DHT22;3399;52.530;13.304;2023-05-07T04:06:20;9.70;99.90
6724;DHT22;3399;52.530;13.304;2023-05-07T04:08:46;9.90;99.90
6724;DHT22;3399;52.530;13.304;2023-05-07T04:11:11;10.10;99.90
6724;DHT22;3399;52.530;13.304;2023-05-07T04:13:37;10.20;99.90
6724;DHT22;3399;52.530;13.304;2023-05-07T04:16:04;10.00;99.90
6724;DHT22;3399;52.530;13.304;2023-05-07T04:18:30;10.20;99.90
6724;DHT22;3399;52.530;13.304;2023-05-07T04:20:55;10.30;99.90
6724;DHT22;3399;52.530;13.304;2023-05-07T04:23:21;10.40;99.90
6724;DHT22;3399;52.530;13.304;2023-05-07T04:25:46;10.40;99.90
6724;DHT22;3399;52.530;13.304;2023-05-07T04:28:12;10.40;99.90
6724;DHT22;3399;52.530;13.304;2023-05-07T04:30:38;10.40;99.90
6724;DHT22;3399;52.530;13.304;2023-05-07T04:33:04;10.10;99.90
6724;DHT22;3399;52.530;13.304;2023-05-07T04:35:29;10.00;99.90
6724;DHT22;3399;52.530;13.304;2023-05-07T04:37:55;10.10;99.90
6724;DHT22;3399;52.530;13.304;2023-05-07T04:40:20;10.10;99.90
6724;DHT22;3399;52.530;13.304;2023-05-07T04:42:46;10.20;99.90
6724;DHT22;3399;52.530;13.304;2023-05-07T04:45:11;10.30;99.90
6724;DHT22;3399;52.530;13.304;2023-05-07T04:47:38;10.30;99.90
6724;DHT22;3399;52.530;13.304;2023-05-07T04:50:04;10.30;99.90
6724;DHT22;3399;52.530;13.304;2023-05-07T04:52:30;10.30;99.90
6724;DHT22;3399;52.530;13.304;2023-05-07T04:54:58;10.00;99.90
6724;DHT22;3399;52.530;13.304;2023-05-07T04:57:24;10.00;99.90
6724;DHT22;3399;52.530;13.304;2023-05-07T04:59:49;10.20;99.90
6724;DHT22;3399;52.530;13.304;2023-05-07T05:02:15;10.10;99.90
6724;DHT22;3399;52.530;13.304;2023-05-07T05:04:40;10.10;99.90
6724;DHT22;3399;52.530;13.304;2023-05-07T05:07:06;10.00;99.90
6724;DHT22;3399;52.530;13.304;2023-05-07T05:09:32;10.20;99.90
6724;DHT22;3399;52.530;13.304;2023-05-07T05:11:58;10.30;99.90
6724;DHT22;3399;52.530;13.304;2023-05-07T05:14:24;10.30;99.90
6724;DHT22;3399;52.530;13.304;2023-05-07T05:16:49;10.30;99.90
6724;DHT22;3399;52.530;13.304;2023-05-07T05:19:15;10.40;99.90
6724;DHT22;3399;52.530;13.304;2023-05-07T05:21:41;10.40;99.90
6724;DHT22;3399;52.530;13.304;2023-05-07T05:24:06;10.50;99.90
6724;DHT22;3399;52.530;13.304;2023-05-07T05:26:32;10.40;99.90
6724;DHT22;3399;52.530;13.304;2023-05-07T05:28:57;10.30;99.90
6724;DHT22;3399;52.530;13.304;2023-05-07T05:31:23;10.40;99.90
6724;DHT22;3399;52.530;13.304;2023-05-07T05:33:48;10.60;99.90
6724;DHT22;3399;52.530;13.304;2023-05-07T05:36:14;10.70;99.90
6724;DHT22;3399;52.530;13.304;2023-05-07T05:38:39;10.70;99.90
6724;DHT22;3399;52.530;13.304;2023-05-07T05:41:05;10.70;99.90
6724;DHT22;3399;52.530;13.304;2023-05-07T05:43:31;10.40;99.90
6724;DHT22;3399;52.530;13.304;2023-05-07T05:45:56;10.40;99.90
6724;DHT22;3399;52.530;13.304;2023-05-07T05:48:22;10.40;99.90
6724;DHT22;3399;52.530;13.304;2023-05-07T05:50:48;10.50;99.90
6724;DHT22;3399;52.530;13.304;2023-05-07T05:53:13;10.70;99.90
6724;DHT22;3399;52.530;13.304;2023-05-07T05:55:39;10.80;99.90
6724;DHT22;3399;52.530;13.304;2023-05-07T05:58:05;10.80;99.90
6724;DHT22;3399;52.530;13.304;2023-05-07T06:00:30;10.90;99.90
6724;DHT22;3399;52.530;13.304;2023-05-07T06:02:56;11.00;99.90
6724;DHT22;3399;52.530;13.304;2023-05-07T06:05:21;10.90;99.90
6724;DHT22;3399;52.530;13.304;2023-05-07T06:07:47;11.00;99.90
6724;DHT22;3399;52.530;13.304;2023-05-07T06:10:12;11.00;99.90
6724;DHT22;3399;52.530;13.304;2023-05-07T06:12:38;10.90;99.90
6724;DHT22;3399;52.530;13.304;2023-05-07T06:15:04;10.90;99.90
6724;DHT22;3399;52.530;13.304;2023-05-07T06:17:29;10.80;99.90
6724;DHT22;3399;52.530;13.304;2023-05-07T06:19:55;10.70;99.90
6724;DHT22;3399;52.530;13.304;2023-05-07T06:22:21;10.80;99.90
6724;DHT22;3399;52.530;13.304;2023-05-07T06:24:47;10.60;99.90
6724;DHT22;3399;52.530;13.304;2023-05-07T06:27:12;10.70;99.90
6724;DHT22;3399;52.530;13.304;2023-05-07T06:29:38;10.60;99.90
6724;DHT22;3399;52.530;13.304;2023-05-07T06:32:11;10.70;99.90
6724;DHT22;3399;52.530;13.304;2023-05-07T06:34:37;10.90;99.90
6724;DHT22;3399;52.530;13.304;2023-05-07T06:37:03;11.00;99.90
6724;DHT22;3399;52.530;13.304;2023-05-07T06:39:28;10.90;99.90
6724;DHT22;3399;52.530;13.304;2023-05-07T06:41:54;10.90;99.90
6724;DHT22;3399;52.530;13.304;2023-05-07T06:44:19;10.90;99.90
6724;DHT22;3399;52.530;13.304;2023-05-07T06:46:45;10.90;99.90
6724;DHT22;3399;52.530;13.304;2023-05-07T06:49:12;11.10;99.90
6724;DHT22;3399;52.530;13.304;2023-05-07T06:51:37;11.20;99.90
6724;DHT22;3399;52.530;13.304;2023-05-07T06:54:03;11.20;99.90
6724;DHT22;3399;52.530;13.304;2023-05-07T06:56:30;11.10;99.90
6724;DHT22;3399;52.530;13.304;2023-05-07T06:58:55;11.30;99.90
6724;DHT22;3399;52.530;13.304;2023-05-07T07:01:21;11.50;99.90
6724;DHT22;3399;52.530;13.304;2023-05-07T07:03:46;11.30;99.90
6724;DHT22;3399;52.530;13.304;2023-05-07T07:06:12;11.00;99.90
6724;DHT22;3399;52.530;13.304;2023-05-07T07:08:37;11.20;99.90
6724;DHT22;3399;52.530;13.304;2023-05-07T07:11:04;11.50;99.90
6724;DHT22;3399;52.530;13.304;2023-05-07T07:13:30;11.70;99.90
6724;DHT22;3399;52.530;13.304;2023-05-07T07:15:55;11.80;99.90
6724;DHT22;3399;52.530;13.304;2023-05-07T07:18:21;11.80;99.90
6724;DHT22;3399;52.530;13.304;2023-05-07T07:20:46;11.90;99.90
6724;DHT22;3399;52.530;13.304;2023-05-07T07:23:12;12.00;99.90
6724;DHT22;3399;52.530;13.304;2023-05-07T07:25:37;12.10;99.90
6724;DHT22;3399;52.530;13.304;2023-05-07T07:28:03;11.90;99.90
6724;DHT22;3399;52.530;13.304;2023-05-07T07:30:28;12.00;99.90
6724;DHT22;3399;52.530;13.304;2023-05-07T07:32:54;12.10;99.90
6724;DHT22;3399;52.530;13.304;2023-05-07T07:35:20;12.20;99.90
6724;DHT22;3399;52.530;13.304;2023-05-07T07:37:46;12.20;99.90
6724;DHT22;3399;52.530;13.304;2023-05-07T07:40:12;12.10;99.90
6724;DHT22;3399;52.530;13.304;2023-05-07T07:42:38;12.20;99.90
6724;DHT22;3399;52.530;13.304;2023-05-07T07:45:03;12.10;99.90
6724;DHT22;3399;52.530;13.304;2023-05-07T07:47:29;12.30;99.90
6724;DHT22;3399;52.530;13.304;2023-05-07T07:49:55;12.10;99.90
6724;DHT22;3399;52.530;13.304;2023-05-07T07:52:20;12.10;99.90
6724;DHT22;3399;52.530;13.304;2023-05-07T07:54:46;12.00;99.90
6724;DHT22;3399;52.530;13.304;2023-05-07T07:57:11;12.10;99.90
6724;DHT22;3399;52.530;13.304;2023-05-07T07:59:37;12.10;99.90
6724;DHT22;3399;52.530;13.304;2023-05-07T08:02:02;12.10;99.90
6724;DHT22;3399;52.530;13.304;2023-05-07T08:04:28;12.10;99.90
6724;DHT22;3399;52.530;13.304;2023-05-07T08:06:53;12.20;99.90
6724;DHT22;3399;52.530;13.304;2023-05-07T08:09:19;12.30;99.90
6724;DHT22;3399;52.530;13.304;2023-05-07T08:11:45;12.50;99.90
6724;DHT22;3399;52.530;13.304;2023-05-07T08:14:11;12.70;99.90
6724;DHT22;3399;52.530;13.304;2023-05-07T08:16:36;13.00;99.90
6724;DHT22;3399;52.530;13.304;2023-05-07T08:19:02;13.00;99.90
6724;DHT22;3399;52.530;13.304;2023-05-07T08:21:27;12.90;99.90
6724;DHT22;3399;52.530;13.304;2023-05-07T08:23:53;12.90;99.90
6724;DHT22;3399;52.530;13.304;2023-05-07T08:26:18;12.90;99.90
6724;DHT22;3399;52.530;13.304;2023-05-07T08:28:44;13.10;99.90
6724;DHT22;3399;52.530;13.304;2023-05-07T08:31:09;13.20;99.90
6724;DHT22;3399;52.530;13.304;2023-05-07T08:33:35;13.20;99.90
6724;DHT22;3399;52.530;13.304;2023-05-07T08:36:00;13.30;99.90
6724;DHT22;3399;52.530;13.304;2023-05-07T08:38:26;13.20;99.90
6724;DHT22;3399;52.530;13.304;2023-05-07T08:40:51;13.20;99.90
6724;DHT22;3399;52.530;13.304;2023-05-07T08:43:18;13.30;99.90
6724;DHT22;3399;52.530;13.304;2023-05-07T08:45:45;13.60;99.90
6724;DHT22;3399;52.530;13.304;2023-05-07T08:48:16;13.80;99.90
6724;DHT22;3399;52.530;13.304;2023-05-07T08:50:42;13.60;99.90
6724;DHT22;3399;52.530;13.304;2023-05-07T08:53:07;13.50;99.90
6724;DHT22;3399;52.530;13.304;2023-05-07T08:55:33;13.80;99.90
6724;DHT22;3399;52.530;13.304;2023-05-07T08:57:59;13.80;99.90
6724;DHT22;3399;52.530;13.304;2023-05-07T09:00:25;13.90;99.90
6724;DHT22;3399;52.530;13.304;2023-05-07T09:02:51;13.90;99.90
6724;DHT22;3399;52.530;13.304;2023-05-07T09:05:17;13.90;99.90
6724;DHT22;3399;52.530;13.304;2023-05-07T09:07:42;13.70;99.90
6724;DHT22;3399;52.530;13.304;2023-05-07T09:10:08;13.90;99.90
6724;DHT22;3399;52.530;13.304;2023-05-07T09:12:34;14.10;99.90
6724;DHT22;3399;52.530;13.304;2023-05-07T09:15:01;14.10;99.90
6724;DHT22;3399;52.530;13.304;2023-05-07T09:17:28;14.10;99.90
6724;DHT22;3399;52.530;13.304;2023-05-07T09:19:53;14.30;99.90
6724;DHT22;3399;52.530;13.304;2023-05-07T09:22:19;14.40;99.90
6724;DHT22;3399;52.530;13.304;2023-05-07T09:24:48;14.50;99.90
6724;DHT22;3399;52.530;13.304;2023-05-07T09:27:14;14.70;99.90
6724;DHT22;3399;52.530;13.304;2023-05-07T09:29:40;14.60;99.90
6724;DHT22;3399;52.530;13.304;2023-05-07T09:32:07;14.50;99.90
6724;DHT22;3399;52.530;13.304;2023-05-07T09:34:34;14.50;99.90
6724;DHT22;3399;52.530;13.304;2023-05-07T09:37:04;14.30;99.90
6724;DHT22;3399;52.530;13.304;2023-05-07T09:39:43;14.40;99.90
6724;DHT22;3399;52.530;13.304;2023-05-07T09:42:08;14.40;99.90
6724;DHT22;3399;52.530;13.304;2023-05-07T09:44:35;14.50;99.90
6724;DHT22;3399;52.530;13.304;2023-05-07T09:47:02;14.40;99.90
6724;DHT22;3399;52.530;13.304;2023-05-07T09:49:30;14.50;99.90
6724;DHT22;3399;52.530;13.304;2023-05-07T09:52:00;14.60;99.90
6724;DHT22;3399;52.530;13.304;2023-05-07T09:54:25;14.80;99.90
6724;DHT22;3399;52.530;13.304;2023-05-07T09:56:52;14.50;99.90
6724;DHT22;3399;52.530;13.304;2023-05-07T09:59:21;14.30;99.90
6724;DHT22;3399;52.530;13.304;2023-05-07T10:01:49;14.60;99.90
6724;DHT22;3399;52.530;13.304;2023-05-07T10:04:15;14.70;99.90
6724;DHT22;3399;52.530;13.304;2023-05-07T10:06:42;15.00;99.90
6724;DHT22;3399;52.530;13.304;2023-05-07T10:09:09;14.80;99.90
6724;DHT22;3399;52.530;13.304;2023-05-07T10:11:36;14.20;99.90
6724;DHT22;3399;52.530;13.304;2023-05-07T10:14:02;14.40;99.90
6724;DHT22;3399;52.530;13.304;2023-05-07T10:16:32;14.70;99.90
6724;DHT22;3399;52.530;13.304;2023-05-07T10:19:02;14.80;99.90
6724;DHT22;3399;52.530;13.304;2023-05-07T10:21:29;15.10;99.90
6724;DHT22;3399;52.530;13.304;2023-05-07T10:24:03;15.20;99.90
6724;DHT22;3399;52.530;13.304;2023-05-07T10:26:32;15.30;99.90
6724;DHT22;3399;52.530;13.304;2023-05-07T10:29:18;15.60;99.90
6724;DHT22;3399;52.530;13.304;2023-05-07T10:34:34;15.20;99.60
6724;DHT22;3399;52.530;13.304;2023-05-07T10:37:02;15.30;99.10
6724;DHT22;3399;52.530;13.304;2023-05-07T10:39:29;15.10;99.00
6724;DHT22;3399;52.530;13.304;2023-05-07T10:41:55;15.20;99.90
6724;DHT22;3399;52.530;13.304;2023-05-07T10:44:27;15.00;99.90
6724;DHT22;3399;52.530;13.304;2023-05-07T10:47:10;15.20;99.40
6724;DHT22;3399;52.530;13.304;2023-05-07T10:49:46;15.80;99.40
6724;DHT22;3399;52.530;13.304;2023-05-07T10:52:23;16.20;98.40
6724;DHT22;3399;52.530;13.304;2023-05-07T10:57:42;16.00;97.50
6724;DHT22;3399;52.530;13.304;2023-05-07T11:05:30;16.30;96.40
6724;DHT22;3399;52.530;13.304;2023-05-07T11:07:57;16.10;97.40
6724;DHT22;3399;52.530;13.304;2023-05-07T11:10:23;16.30;98.50
6724;DHT22;3399;52.530;13.304;2023-05-07T11:13:09;16.00;97.30
6724;DHT22;3399;52.530;13.304;2023-05-07T11:15:36;16.10;96.70
6724;DHT22;3399;52.530;13.304;2023-05-07T11:18:02;16.60;96.30
6724;DHT22;3399;52.530;13.304;2023-05-07T11:26:07;17.10;94.00
6724;DHT22;3399;52.530;13.304;2023-05-07T11:28:40;17.00;94.60
6724;DHT22;3399;52.530;13.304;2023-05-07T11:31:06;16.50;93.90
6724;DHT22;3399;52.530;13.304;2023-05-07T11:33:33;16.60;94.40
6724;DHT22;3399;52.530;13.304;2023-05-07T11:36:00;16.80;95.20
6724;DHT22;3399;52.530;13.304;2023-05-07T11:38:27;17.10;94.00
6724;DHT22;3399;52.530;13.304;2023-05-07T11:40:58;17.10;94.40
6724;DHT22;3399;52.530;13.304;2023-05-07T11:43:26;17.10;93.80
6724;DHT22;3399;52.530;13.304;2023-05-07T11:45:51;17.20;93.40
6724;DHT22;3399;52.530;13.304;2023-05-07T11:48:17;17.00;93.40
6724;DHT22;3399;52.530;13.304;2023-05-07T11:50:54;16.60;93.90
6724;DHT22;3399;52.530;13.304;2023-05-07T11:53:26;16.70;93.70
6724;DHT22;3399;52.530;13.304;2023-05-07T11:55:57;16.90;93.90
6724;DHT22;3399;52.530;13.304;2023-05-07T11:58:24;16.80;95.60
6724;DHT22;3399;52.530;13.304;2023-05-07T12:00:51;17.00;93.60
6724;DHT22;3399;52.530;13.304;2023-05-07T12:03:17;17.10;94.00
6724;DHT22;3399;52.530;13.304;2023-05-07T12:05:44;17.90;92.70
6724;DHT22;3399;52.530;13.304;2023-05-07T12:08:17;18.10;92.30
6724;DHT22;3399;52.530;13.304;2023-05-07T12:10:44;18.30;91.40
6724;DHT22;3399;52.530;13.304;2023-05-07T12:13:20;17.70;91.70
6724;DHT22;3399;52.530;13.304;2023-05-07T12:15:46;17.80;90.20
6724;DHT22;3399;52.530;13.304;2023-05-07T12:18:12;18.00;90.50
6724;DHT22;3399;52.530;13.304;2023-05-07T12:20:39;17.60;91.60
6724;DHT22;3399;52.530;13.304;2023-05-07T12:23:05;17.20;91.00
6724;DHT22;3399;52.530;13.304;2023-05-07T12:25:31;16.90;92.10
6724;DHT22;3399;52.530;13.304;2023-05-07T12:27:57;17.20;92.00
6724;DHT22;3399;52.530;13.304;2023-05-07T12:30:25;17.50;90.60
6724;DHT22;3399;52.530;13.304;2023-05-07T12:32:54;17.50;90.40
6724;DHT22;3399;52.530;13.304;2023-05-07T12:35:40;17.40;92.50
6724;DHT22;3399;52.530;13.304;2023-05-07T12:38:11;18.20;90.20
6724;DHT22;3399;52.530;13.304;2023-05-07T12:40:45;18.30;90.00
6724;DHT22;3399;52.530;13.304;2023-05-07T12:43:24;18.40;90.30
6724;DHT22;3399;52.530;13.304;2023-05-07T12:45:52;18.50;90.60
6724;DHT22;3399;52.530;13.304;2023-05-07T12:48:19;18.80;89.60
6724;DHT22;3399;52.530;13.304;2023-05-07T12:50:48;19.80;83.70
6724;DHT22;3399;52.530;13.304;2023-05-07T12:53:14;19.60;85.50
6724;DHT22;3399;52.530;13.304;2023-05-07T12:55:45;19.40;81.10
6724;DHT22;3399;52.530;13.304;2023-05-07T12:58:16;18.90;83.80
6724;DHT22;3399;52.530;13.304;2023-05-07T13:00:42;18.10;82.10
6724;DHT22;3399;52.530;13.304;2023-05-07T13:03:09;17.60;86.60
6724;DHT22;3399;52.530;13.304;2023-05-07T13:05:34;17.80;87.20
6724;DHT22;3399;52.530;13.304;2023-05-07T13:08:00;17.10;88.70
6724;DHT22;3399;52.530;13.304;2023-05-07T13:10:27;17.60;89.60
6724;DHT22;3399;52.530;13.304;2023-05-07T13:12:52;18.10;84.80
6724;DHT22;3399;52.530;13.304;2023-05-07T13:15:18;17.80;85.40
6724;DHT22;3399;52.530;13.304;2023-05-07T13:17:44;17.60;85.60
6724;DHT22;3399;52.530;13.304;2023-05-07T13:20:10;17.80;85.20
6724;DHT22;3399;52.530;13.304;2023-05-07T13:22:37;18.00;86.20
6724;DHT22;3399;52.530;13.304;2023-05-07T13:25:02;18.10;84.70
6724;DHT22;3399;52.530;13.304;2023-05-07T13:27:28;17.60;84.50
6724;DHT22;3399;52.530;13.304;2023-05-07T13:29:56;17.60;85.30
6724;DHT22;3399;52.530;13.304;2023-05-07T13:32:21;17.90;85.90
6724;DHT22;3399;52.530;13.304;2023-05-07T13:34:47;18.30;82.50
6724;DHT22;3399;52.530;13.304;2023-05-07T13:37:12;18.70;81.60
6724;DHT22;3399;52.530;13.304;2023-05-07T13:39:37;19.20;79.60
6724;DHT22;3399;52.530;13.304;2023-05-07T13:42:03;19.50;79.60
6724;DHT22;3399;52.530;13.304;2023-05-07T13:44:28;19.50;78.60
6724;DHT22;3399;52.530;13.304;2023-05-07T13:46:54;19.90;78.60
6724;DHT22;3399;52.530;13.304;2023-05-07T13:49:19;20.50;76.00
6724;DHT22;3399;52.530;13.304;2023-05-07T13:51:45;20.30;75.30
6724;DHT22;3399;52.530;13.304;2023-05-07T13:54:10;20.40;80.00
6724;DHT22;3399;52.530;13.304;2023-05-07T13:56:36;20.50;76.00
6724;DHT22;3399;52.530;13.304;2023-05-07T13:59:01;20.60;72.20
6724;DHT22;3399;52.530;13.304;2023-05-07T14:01:27;20.40;72.80
6724;DHT22;3399;52.530;13.304;2023-05-07T14:03:53;19.90;71.60
6724;DHT22;3399;52.530;13.304;2023-05-07T14:06:18;20.00;74.70
6724;DHT22;3399;52.530;13.304;2023-05-07T14:08:44;20.30;74.20
6724;DHT22;3399;52.530;13.304;2023-05-07T14:11:09;20.70;71.50
6724;DHT22;3399;52.530;13.304;2023-05-07T14:13:35;20.00;71.30
6724;DHT22;3399;52.530;13.304;2023-05-07T14:16:00;20.00;72.60
6724;DHT22;3399;52.530;13.304;2023-05-07T14:18:26;19.70;72.10
6724;DHT22;3399;52.530;13.304;2023-05-07T14:20:54;19.70;70.40
6724;DHT22;3399;52.530;13.304;2023-05-07T14:23:19;19.10;72.30
6724;DHT22;3399;52.530;13.304;2023-05-07T14:25:47;18.80;77.80
6724;DHT22;3399;52.530;13.304;2023-05-07T14:28:13;19.10;76.20
6724;DHT22;3399;52.530;13.304;2023-05-07T14:30:39;19.00;77.90
6724;DHT22;3399;52.530;13.304;2023-05-07T14:33:05;18.50;74.00
6724;DHT22;3399;52.530;13.304;2023-05-07T14:35:30;18.30;76.50
6724;DHT22;3399;52.530;13.304;2023-05-07T14:37:56;18.40;76.40
6724;DHT22;3399;52.530;13.304;2023-05-07T14:40:21;18.30;73.90
6724;DHT22;3399;52.530;13.304;2023-05-07T14:42:47;17.90;81.40
6724;DHT22;3399;52.530;13.304;2023-05-07T14:45:12;17.80;77.50
6724;DHT22;3399;52.530;13.304;2023-05-07T14:47:38;17.90;77.10
6724;DHT22;3399;52.530;13.304;2023-05-07T14:50:04;18.00;79.70
6724;DHT22;3399;52.530;13.304;2023-05-07T14:52:29;18.10;77.60
6724;DHT22;3399;52.530;13.304;2023-05-07T14:54:55;18.10;77.00
6724;DHT22;3399;52.530;13.304;2023-05-07T14:57:20;18.00;74.10
6724;DHT22;3399;52.530;13.304;2023-05-07T14:59:46;17.60;75.20
6724;DHT22;3399;52.530;13.304;2023-05-07T15:02:12;17.60;74.50
6724;DHT22;3399;52.530;13.304;2023-05-07T15:04:38;17.40;75.10
6724;DHT22;3399;52.530;13.304;2023-05-07T15:07:11;17.40;76.60
6724;DHT22;3399;52.530;13.304;2023-05-07T15:09:36;17.60;76.40
6724;DHT22;3399;52.530;13.304;2023-05-07T15:12:02;17.80;74.00
6724;DHT22;3399;52.530;13.304;2023-05-07T15:14:29;17.70;74.10
6724;DHT22;3399;52.530;13.304;2023-05-07T15:16:54;17.30;76.00
6724;DHT22;3399;52.530;13.304;2023-05-07T15:19:20;17.40;75.90
6724;DHT22;3399;52.530;13.304;2023-05-07T15:21:47;17.40;75.90
6724;DHT22;3399;52.530;13.304;2023-05-07T15:24:13;17.40;76.40
6724;DHT22;3399;52.530;13.304;2023-05-07T15:26:38;18.00;75.10
6724;DHT22;3399;52.530;13.304;2023-05-07T15:29:03;18.30;73.80
6724;DHT22;3399;52.530;13.304;2023-05-07T15:31:33;18.30;74.20
6724;DHT22;3399;52.530;13.304;2023-05-07T15:34:00;18.70;74.20
6724;DHT22;3399;52.530;13.304;2023-05-07T15:36:25;19.20;73.30
6724;DHT22;3399;52.530;13.304;2023-05-07T15:38:51;19.10;73.00
6724;DHT22;3399;52.530;13.304;2023-05-07T15:41:16;19.50;71.50
6724;DHT22;3399;52.530;13.304;2023-05-07T15:43:47;19.00;71.40
6724;DHT22;3399;52.530;13.304;2023-05-07T15:46:20;18.30;74.40
6724;DHT22;3399;52.530;13.304;2023-05-07T15:48:46;18.30;75.20
6724;DHT22;3399;52.530;13.304;2023-05-07T15:51:12;18.20;73.50
6724;DHT22;3399;52.530;13.304;2023-05-07T15:53:38;18.10;74.90
6724;DHT22;3399;52.530;13.304;2023-05-07T15:56:05;17.20;75.60
6724;DHT22;3399;52.530;13.304;2023-05-07T15:58:31;17.00;77.70